Time;durP1;ratioP1;P1;durP2;ratioP2;P2;SDS_P1;SDS_P2;PMS_P1;PMS_P2;Temp;Humidity;BMP_temperature;BMP_pressure;BME280_temperature;BME280_humidity;BME280_pressure;Samples;Min_cycle;Max_cycle;Signal;HPM_P1;HPM_P2
2023/03/11 00:01:50;;;;;;;12.40;8.55;;;;;;;;;;4937778;29;20051;-65
2023/03/11 00:04:15;;;;;;;13.40;8.45;;;;;;;;;;4955262;29;20059;-64
2023/03/11 00:06:41;;;;;;;11.20;7.32;;;;;;;;;;4954954;29;20078;-64
2023/03/11 00:09:06;;;;;;;12.68;7.78;;;;;;;;;;4955640;28;20043;-65
2023/03/11 00:11:31;;;;;;;11.80;8.38;;;;;;;;;;4941159;29;20039;-66
2023/03/11 00:13:57;;;;;;;11.02;7.82;;;;;;;;;;4958626;29;20035;-65
2023/03/11 00:16:22;;;;;;;12.13;7.68;;;;;;;;;;4958529;29;20047;-65
2023/03/11 00:18:51;;;;;;;12.35;7.65;;;;;;;;;;4941175;29;20089;-66
2023/03/11 00:21:17;;;;;;;13.55;8.45;;;;;;;;;;4958501;29;20043;-65
2023/03/11 00:23:42;;;;;;;11.48;7.95;;;;;;;;;;4958716;29;20046;-64
2023/03/11 00:26:08;;;;;;;13.82;8.20;;;;;;;;;;4957515;29;20047;-64
2023/03/11 00:28:33;;;;;;;12.50;8.27;;;;;;;;;;4958291;29;20045;-64
2023/03/11 00:30:58;;;;;;;12.40;8.30;;;;;;;;;;4958389;29;20468;-65
2023/03/11 00:33:26;;;;;;;15.60;9.55;;;;;;;;;;4940680;29;20559;-64
2023/03/11 00:35:51;;;;;;;12.40;7.85;;;;;;;;;;4957119;29;20134;-64
2023/03/11 00:38:18;;;;;;;14.90;8.90;;;;;;;;;;4957127;29;20055;-64
2023/03/11 00:40:45;;;;;;;10.82;8.05;;;;;;;;;;4956360;29;20059;-65
2023/03/11 00:43:10;;;;;;;13.30;7.70;;;;;;;;;;4957799;29;20046;-63
2023/03/11 00:45:36;;;;;;;10.55;7.22;;;;;;;;;;4957793;29;20047;-64
2023/03/11 00:48:02;;;;;;;10.20;7.47;;;;;;;;;;4956748;29;20159;-63
2023/03/11 00:50:29;;;;;;;10.32;7.05;;;;;;;;;;4957012;29;20130;-64
2023/03/11 00:52:55;;;;;;;10.63;7.30;;;;;;;;;;4957713;29;20047;-58
2023/03/11 00:55:22;;;;;;;9.27;7.10;;;;;;;;;;4998042;23;20058;-58
2023/03/11 00:57:50;;;;;;;11.20;6.90;;;;;;;;;;5037678;23;20085;-58
2023/03/11 01:00:16;;;;;;;9.70;7.00;;;;;;;;;;5014680;28;20109;-63
2023/03/11 01:02:50;;;;;;;12.70;6.28;;;;;;;;;;5014677;28;20048;-64
2023/03/11 01:05:17;;;;;;;11.65;7.50;;;;;;;;;;4999159;28;20037;-64
2023/03/11 01:07:47;;;;;;;12.35;7.32;;;;;;;;;;5015530;28;20042;-67
2023/03/11 01:10:13;;;;;;;12.93;7.60;;;;;;;;;;5016207;28;20388;-67
2023/03/11 01:12:38;;;;;;;10.55;6.93;;;;;;;;;;5014192;28;20038;-67
2023/03/11 01:15:05;;;;;;;11.23;6.13;;;;;;;;;;5014141;28;20069;-67
2023/03/11 01:17:30;;;;;;;13.27;6.43;;;;;;;;;;5015864;28;20421;-65
2023/03/11 01:19:55;;;;;;;8.23;6.00;;;;;;;;;;5014155;28;20042;-66
2023/03/11 01:22:21;;;;;;;10.35;6.30;;;;;;;;;;4997642;28;20034;-65
2023/03/11 01:24:46;;;;;;;8.98;6.63;;;;;;;;;;5015617;28;20485;-65
2023/03/11 01:27:12;;;;;;;8.93;6.57;;;;;;;;;;5015662;28;20034;-65
2023/03/11 01:29:37;;;;;;;8.60;5.60;;;;;;;;;;5015751;28;20065;-65
2023/03/11 01:32:03;;;;;;;11.70;7.13;;;;;;;;;;4997693;28;20512;-65
2023/03/11 01:34:28;;;;;;;11.40;6.72;;;;;;;;;;4981823;28;20045;-65
2023/03/11 01:36:53;;;;;;;9.18;6.50;;;;;;;;;;4997606;28;20038;-65
2023/03/11 01:39:19;;;;;;;9.15;6.75;;;;;;;;;;5015757;28;20029;-65
2023/03/11 01:41:44;;;;;;;8.25;5.78;;;;;;;;;;5015098;28;20030;-64
2023/03/11 01:44:11;;;;;;;8.15;5.28;;;;;;;;;;4997488;28;20041;-66
2023/03/11 01:46:52;;;;;;;9.55;5.38;;;;;;;;;;4997478;28;20037;-66
2023/03/11 01:49:20;;;;;;;7.35;4.75;;;;;;;;;;5014987;28;20042;-66
2023/03/11 01:52:06;;;;;;;5.25;4.15;;;;;;;;;;5013704;28;20038;-65
2023/03/11 01:54:36;;;;;;;4.60;4.00;;;;;;;;;;4997764;28;20038;-65
2023/03/11 01:57:08;;;;;;;5.30;3.85;;;;;;;;;;4997161;28;20486;-64
2023/03/11 01:59:39;;;;;;;3.30;3.00;;;;;;;;;;4997245;28;20501;-65
2023/03/11 02:02:17;;;;;;;3.67;3.10;;;;;;;;;;4994312;28;20479;-65
2023/03/11 02:04:43;;;;;;;4.00;2.88;;;;;;;;;;4993864;28;20042;-65
2023/03/11 02:07:10;;;;;;;2.70;2.50;;;;;;;;;;4978431;28;20145;-65
2023/03/11 02:09:37;;;;;;;2.63;2.42;;;;;;;;;;4994375;28;20050;-66
2023/03/11 02:12:04;;;;;;;4.50;2.60;;;;;;;;;;4978013;28;20410;-64
2023/03/11 02:14:30;;;;;;;3.55;2.20;;;;;;;;;;4995086;28;20057;-64
2023/03/11 02:16:56;;;;;;;4.53;2.28;;;;;;;;;;4995141;28;20031;-64
2023/03/11 02:19:42;;;;;;;2.03;1.83;;;;;;;;;;4977271;28;20030;-64
2023/03/11 02:22:09;;;;;;;2.33;2.13;;;;;;;;;;4993821;28;20494;-63
2023/03/11 02:24:38;;;;;;;1.98;1.80;;;;;;;;;;4993681;28;20045;-64
2023/03/11 02:27:15;;;;;;;2.28;1.75;;;;;;;;;;4994025;28;20402;-67
2023/03/11 02:29:41;;;;;;;1.95;1.52;;;;;;;;;;4994210;28;20030;-67
2023/03/11 02:32:08;;;;;;;1.52;1.42;;;;;;;;;;4993494;28;20140;-67
2023/03/11 02:34:35;;;;;;;2.15;1.75;;;;;;;;;;4993628;28;20057;-67
2023/03/11 02:37:07;;;;;;;1.33;1.23;;;;;;;;;;4994582;28;20042;-67
2023/03/11 02:39:34;;;;;;;1.50;1.40;;;;;;;;;;4977107;28;20398;-67
2023/03/11 02:42:04;;;;;;;1.90;1.42;;;;;;;;;;4993749;28;20125;-68
2023/03/11 02:44:29;;;;;;;1.30;1.20;;;;;;;;;;4994723;28;20101;-68
2023/03/11 02:46:55;;;;;;;1.40;1.30;;;;;;;;;;4993528;28;20038;-67
2023/03/11 02:49:21;;;;;;;1.40;1.30;;;;;;;;;;4993079;28;20406;-68
2023/03/11 02:51:46;;;;;;;1.40;1.30;;;;;;;;;;4993839;28;20038;-68
2023/03/11 02:54:12;;;;;;;1.73;1.63;;;;;;;;;;4976799;28;20101;-65
2023/03/11 02:56:37;;;;;;;2.63;1.75;;;;;;;;;;4976879;28;20041;-64
2023/03/11 02:59:03;;;;;;;2.00;1.60;;;;;;;;;;5006350;28;20038;-63
2023/03/11 03:01:30;;;;;;;1.42;1.33;;;;;;;;;;4996010;28;20497;-63
2023/03/11 03:03:55;;;;;;;1.10;1.10;;;;;;;;;;4996646;28;20386;-63
2023/03/11 03:06:21;;;;;;;1.60;1.50;;;;;;;;;;4980457;28;20046;-62
2023/03/11 03:08:48;;;;;;;2.53;1.50;;;;;;;;;;5012493;28;20036;-62
2023/03/11 03:11:14;;;;;;;1.98;1.50;;;;;;;;;;4996193;28;20038;-63
2023/03/11 03:13:39;;;;;;;1.40;1.30;;;;;;;;;;5012445;28;20041;-62
2023/03/11 03:16:05;;;;;;;2.28;1.20;;;;;;;;;;4996319;28;20163;-62
2023/03/11 03:18:31;;;;;;;1.13;1.05;;;;;;;;;;4996050;28;20042;-63
2023/03/11 03:20:56;;;;;;;1.25;1.10;;;;;;;;;;5012448;28;20041;-63
2023/03/11 03:23:22;;;;;;;1.40;1.30;;;;;;;;;;5013857;28;20092;-63
2023/03/11 03:25:47;;;;;;;1.08;0.98;;;;;;;;;;5013594;28;20460;-63
2023/03/11 03:28:13;;;;;;;1.20;1.10;;;;;;;;;;4996834;28;20038;-65
2023/03/11 03:30:42;;;;;;;1.43;1.00;;;;;;;;;;5013196;28;20068;-64
2023/03/11 03:33:09;;;;;;;1.00;0.90;;;;;;;;;;4996249;28;20394;-64
2023/03/11 03:35:34;;;;;;;1.30;1.20;;;;;;;;;;4996642;28;20034;-63
2023/03/11 03:38:07;;;;;;;1.13;1.02;;;;;;;;;;4996433;28;20034;-63
2023/03/11 03:40:32;;;;;;;1.20;0.90;;;;;;;;;;4995816;28;20103;-63
2023/03/11 03:43:00;;;;;;;4.70;0.88;;;;;;;;;;4995853;28;20030;-63
2023/03/11 03:45:27;;;;;;;0.90;0.90;;;;;;;;;;4998768;28;20073;-63
2023/03/11 03:47:52;;;;;;;1.17;1.00;;;;;;;;;;5017268;28;20073;-63
2023/03/11 03:50:20;;;;;;;1.00;0.90;;;;;;;;;;4999504;28;20184;-63
2023/03/11 03:52:47;;;;;;;1.83;1.02;;;;;;;;;;5000127;28;20096;-63
2023/03/11 03:55:13;;;;;;;1.30;0.90;;;;;;;;;;4999768;28;20508;-63
2023/03/11 03:57:38;;;;;;;1.13;1.02;;;;;;;;;;4999789;28;20381;-63
2023/03/11 04:00:08;;;;;;;2.20;1.00;;;;;;;;;;5015484;28;20037;-64
2023/03/11 04:02:39;;;;;;;0.98;0.82;;;;;;;;;;5016926;28;20389;-64
2023/03/11 04:05:05;;;;;;;0.68;0.68;;;;;;;;;;4982931;28;20049;-63
2023/03/11 04:07:32;;;;;;;1.23;0.93;;;;;;;;;;5017423;28;20413;-63
2023/03/11 04:09:58;;;;;;;1.05;0.85;;;;;;;;;;5015399;28;20041;-64
2023/03/11 04:12:23;;;;;;;1.33;0.80;;;;;;;;;;4999205;28;20042;-63
2023/03/11 04:14:49;;;;;;;1.30;0.85;;;;;;;;;;4982608;28;20037;-64
2023/03/11 04:17:16;;;;;;;0.85;0.85;;;;;;;;;;4999087;28;20040;-64
2023/03/11 04:19:42;;;;;;;1.38;0.82;;;;;;;;;;4999083;28;20041;-64
2023/03/11 04:22:08;;;;;;;2.03;1.00;;;;;;;;;;4999025;28;20050;-63
2023/03/11 04:24:35;;;;;;;1.05;0.93;;;;;;;;;;4998918;28;20045;-63
2023/03/11 04:27:00;;;;;;;1.35;0.80;;;;;;;;;;4998921;28;20034;-63
2023/03/11 04:29:26;;;;;;;1.00;0.90;;;;;;;;;;5015268;28;20045;-63
2023/03/11 04:31:52;;;;;;;0.85;0.85;;;;;;;;;;4999109;28;20046;-64
2023/03/11 04:34:19;;;;;;;1.05;0.93;;;;;;;;;;5016265;28;20489;-64
2023/03/11 04:36:44;;;;;;;1.35;1.25;;;;;;;;;;4998676;28;20034;-65
2023/03/11 04:39:15;;;;;;;1.30;1.00;;;;;;;;;;5015325;28;20120;-65
2023/03/11 04:41:42;;;;;;;0.80;0.80;;;;;;;;;;4998584;28;20480;-65
2023/03/11 04:44:10;;;;;;;1.75;0.80;;;;;;;;;;4998648;28;20039;-64
2023/03/11 04:46:36;;;;;;;1.17;0.95;;;;;;;;;;4999151;28;20045;-64
2023/03/11 04:49:03;;;;;;;0.70;0.70;;;;;;;;;;5014994;28;20065;-64
2023/03/11 04:51:29;;;;;;;0.90;0.80;;;;;;;;;;4998606;28;20037;-64
2023/03/11 04:53:55;;;;;;;0.93;0.93;;;;;;;;;;5016115;28;20116;-63
2023/03/11 04:56:21;;;;;;;1.83;1.10;;;;;;;;;;5013396;28;20044;-63
2023/03/11 04:58:47;;;;;;;1.20;0.95;;;;;;;;;;4998587;28;20049;-63
2023/03/11 05:01:13;;;;;;;0.98;0.70;;;;;;;;;;4998334;28;20030;-63
2023/03/11 05:03:39;;;;;;;1.27;0.80;;;;;;;;;;4998573;28;20433;-64
2023/03/11 05:06:05;;;;;;;1.15;0.80;;;;;;;;;;4998119;28;20110;-65
2023/03/11 05:08:30;;;;;;;0.90;0.63;;;;;;;;;;5014515;28;20046;-64
2023/03/11 05:10:56;;;;;;;0.95;0.73;;;;;;;;;;4998086;28;20041;-64
2023/03/11 05:13:22;;;;;;;0.80;0.80;;;;;;;;;;4998662;28;20121;-63
2023/03/11 05:15:49;;;;;;;1.48;0.90;;;;;;;;;;4998200;28;20042;-63
2023/03/11 05:18:14;;;;;;;1.30;1.20;;;;;;;;;;4998400;28;20045;-63
2023/03/11 05:20:40;;;;;;;1.65;1.05;;;;;;;;;;4997946;28;20030;-64
2023/03/11 05:23:07;;;;;;;0.70;0.70;;;;;;;;;;4997889;28;20024;-64
2023/03/11 05:25:34;;;;;;;1.30;0.90;;;;;;;;;;4997875;28;20042;-67
2023/03/11 05:28:01;;;;;;;0.75;0.75;;;;;;;;;;5014082;28;20034;-65
2023/03/11 05:30:27;;;;;;;1.05;0.85;;;;;;;;;;4997792;28;20045;-65
2023/03/11 05:32:52;;;;;;;0.88;0.80;;;;;;;;;;4997700;28;20036;-66
2023/03/11 05:35:19;;;;;;;1.48;0.60;;;;;;;;;;5015142;28;20044;-65
2023/03/11 05:37:48;;;;;;;0.50;0.50;;;;;;;;;;5014160;28;20041;-65
2023/03/11 05:40:14;;;;;;;0.65;0.65;;;;;;;;;;5014215;28;20121;-66
2023/03/11 05:42:41;;;;;;;0.70;0.70;;;;;;;;;;5014074;28;20024;-66
2023/03/11 05:45:08;;;;;;;0.77;0.77;;;;;;;;;;4998178;28;20049;-65
2023/03/11 05:47:34;;;;;;;0.68;0.60;;;;;;;;;;4997701;28;20087;-65
2023/03/11 05:49:59;;;;;;;0.70;0.70;;;;;;;;;;4997615;28;20034;-69
2023/03/11 05:52:26;;;;;;;0.52;0.50;;;;;;;;;;4996833;28;20130;-65
2023/03/11 05:54:52;;;;;;;0.60;0.60;;;;;;;;;;5014269;28;20125;-65
2023/03/11 05:57:21;;;;;;;0.85;0.70;;;;;;;;;;4996855;28;20030;-58
2023/03/11 05:59:46;;;;;;;0.70;0.70;;;;;;;;;;5042414;23;20077;-59
2023/03/11 06:02:13;;;;;;;1.05;0.85;;;;;;;;;;5013155;28;20045;-60
2023/03/11 06:04:39;;;;;;;0.85;0.75;;;;;;;;;;5025480;28;20172;-59
2023/03/11 06:07:06;;;;;;;1.20;1.10;;;;;;;;;;5030229;28;20037;-58
2023/03/11 06:09:35;;;;;;;2.10;1.30;;;;;;;;;;5008470;28;20046;-60
2023/03/11 06:12:03;;;;;;;5.15;3.33;;;;;;;;;;5030419;28;20113;-59
2023/03/11 06:14:38;;;;;;;3.47;2.75;;;;;;;;;;5009677;28;20060;-59
2023/03/11 06:17:04;;;;;;;3.05;2.70;;;;;;;;;;5029998;28;20470;-58
2023/03/11 06:19:29;;;;;;;2.38;2.17;;;;;;;;;;5023734;28;20084;-60
2023/03/11 06:21:55;;;;;;;1.88;1.77;;;;;;;;;;5013490;28;20088;-60
2023/03/11 06:24:20;;;;;;;1.00;1.00;;;;;;;;;;4989951;28;20050;-59
2023/03/11 06:26:50;;;;;;;1.48;0.93;;;;;;;;;;5013813;28;20034;-61
2023/03/11 06:29:15;;;;;;;0.70;0.70;;;;;;;;;;5012908;28;20040;-61
2023/03/11 06:31:42;;;;;;;1.77;0.70;;;;;;;;;;5013507;28;20482;-61
2023/03/11 06:34:10;;;;;;;0.82;0.60;;;;;;;;;;5014123;28;20037;-61
2023/03/11 06:36:36;;;;;;;0.50;0.50;;;;;;;;;;5007948;28;20041;-61
2023/03/11 06:39:02;;;;;;;0.65;0.65;;;;;;;;;;5013301;28;20034;-61
2023/03/11 06:41:28;;;;;;;0.60;0.60;;;;;;;;;;5007122;28;20081;-61
2023/03/11 06:43:54;;;;;;;0.68;0.65;;;;;;;;;;5013440;28;20034;-61
2023/03/11 06:46:20;;;;;;;0.60;0.60;;;;;;;;;;5006100;28;20460;-62
2023/03/11 06:48:46;;;;;;;0.40;0.40;;;;;;;;;;5013060;28;20124;-61
2023/03/11 06:51:14;;;;;;;0.50;0.50;;;;;;;;;;5013315;28;20042;-62
2023/03/11 06:53:39;;;;;;;1.08;0.50;;;;;;;;;;5013173;28;20032;-62
2023/03/11 06:56:07;;;;;;;0.77;0.70;;;;;;;;;;5013083;28;20473;-62
2023/03/11 06:58:39;;;;;;;0.65;0.65;;;;;;;;;;5008443;28;20042;-62
2023/03/11 07:01:21;;;;;;;1.10;0.60;;;;;;;;;;5013068;28;20049;-62
2023/03/11 07:03:48;;;;;;;0.43;0.43;;;;;;;;;;5009760;28;20030;-61
2023/03/11 07:06:15;;;;;;;1.02;0.60;;;;;;;;;;5004749;28;20042;-62
2023/03/11 07:08:41;;;;;;;0.70;0.70;;;;;;;;;;4996574;28;20036;-62
2023/03/11 07:11:08;;;;;;;0.52;0.52;;;;;;;;;;5012982;28;20038;-70
2023/03/11 07:13:34;;;;;;;0.80;0.65;;;;;;;;;;5007625;28;20038;-62
2023/03/11 07:16:01;;;;;;;0.85;0.68;;;;;;;;;;5012408;28;20038;-62
2023/03/11 07:18:26;;;;;;;0.68;0.60;;;;;;;;;;5014282;28;20041;-62
2023/03/11 07:20:51;;;;;;;0.82;0.82;;;;;;;;;;5013587;28;20455;-62
2023/03/11 07:23:17;;;;;;;1.85;1.75;;;;;;;;;;5009482;28;20046;-62
2023/03/11 07:25:45;;;;;;;1.15;1.05;;;;;;;;;;5017924;28;20052;-62
2023/03/11 07:28:11;;;;;;;0.80;0.80;;;;;;;;;;5016352;28;20389;-62
2023/03/11 07:30:37;;;;;;;0.70;0.70;;;;;;;;;;5018001;28;20046;-65
2023/03/11 07:33:03;;;;;;;0.50;0.50;;;;;;;;;;5015895;28;20030;-63
2023/03/11 07:35:29;;;;;;;1.27;0.80;;;;;;;;;;5017823;28;20041;-64
2023/03/11 07:37:54;;;;;;;0.98;0.88;;;;;;;;;;5017750;28;20390;-68
2023/03/11 07:40:19;;;;;;;0.93;0.93;;;;;;;;;;5017700;28;20041;-68
2023/03/11 07:42:44;;;;;;;0.98;0.88;;;;;;;;;;5017382;28;20489;-68
2023/03/11 07:45:10;;;;;;;0.93;0.80;;;;;;;;;;5017527;28;20034;-67
2023/03/11 07:47:35;;;;;;;1.27;1.17;;;;;;;;;;5017587;28;20112;-68
2023/03/11 07:50:01;;;;;;;1.65;1.55;;;;;;;;;;5014954;28;20378;-68
2023/03/11 07:52:29;;;;;;;1.45;1.30;;;;;;;;;;5017769;28;20050;-68
2023/03/11 07:54:54;;;;;;;1.70;1.40;;;;;;;;;;5017389;28;20480;-70
2023/03/11 07:57:20;;;;;;;2.00;1.73;;;;;;;;;;5017268;28;20034;-69
2023/03/11 07:59:45;;;;;;;3.65;2.42;;;;;;;;;;5017138;28;20506;-68
2023/03/11 08:02:11;;;;;;;5.40;3.95;;;;;;;;;;5016237;28;20048;-68
2023/03/11 08:04:36;;;;;;;10.52;7.45;;;;;;;;;;5017820;28;20034;-67
2023/03/11 08:07:01;;;;;;;9.88;7.80;;;;;;;;;;5015716;28;20470;-68
2023/03/11 08:09:27;;;;;;;9.50;6.43;;;;;;;;;;5017438;28;20034;-67
2023/03/11 08:11:52;;;;;;;9.57;7.22;;;;;;;;;;5017071;28;20037;-67
2023/03/11 08:14:17;;;;;;;8.98;6.63;;;;;;;;;;5008141;28;20038;-67
2023/03/11 08:16:43;;;;;;;8.07;5.95;;;;;;;;;;5016662;28;20540;-68
2023/03/11 08:19:10;;;;;;;9.05;6.60;;;;;;;;;;5015716;28;20459;-68
2023/03/11 08:21:35;;;;;;;8.63;6.45;;;;;;;;;;5009860;28;20034;-69
2023/03/11 08:24:01;;;;;;;6.57;5.13;;;;;;;;;;5014760;28;20033;-67
2023/03/11 08:26:26;;;;;;;4.90;4.45;;;;;;;;;;5015968;28;20073;-68
2023/03/11 08:28:51;;;;;;;7.63;4.50;;;;;;;;;;5011837;28;20057;-68
2023/03/11 08:31:18;;;;;;;6.30;4.53;;;;;;;;;;5015424;28;20026;-67
2023/03/11 08:33:45;;;;;;;5.68;5.18;;;;;;;;;;5011630;28;20088;-67
2023/03/11 08:36:10;;;;;;;7.40;5.78;;;;;;;;;;5016370;28;20515;-68
2023/03/11 08:38:35;;;;;;;7.40;5.25;;;;;;;;;;5016805;28;20053;-67
2023/03/11 08:41:01;;;;;;;3.42;1.55;;;;;;;;;;5016297;28;20038;-68
2023/03/11 08:43:26;;;;;;;2.47;2.28;;;;;;;;;;5006424;28;20116;-67
2023/03/11 08:45:51;;;;;;;2.47;2.28;;;;;;;;;;5016192;28;20034;-67
2023/03/11 08:48:17;;;;;;;3.90;2.13;;;;;;;;;;5016557;28;20373;-67
2023/03/11 08:50:42;;;;;;;2.38;1.77;;;;;;;;;;5016718;28;20045;-67
2023/03/11 08:53:08;;;;;;;1.50;1.40;;;;;;;;;;5016356;28;20351;-68
2023/03/11 08:55:33;;;;;;;1.63;1.40;;;;;;;;;;5015927;28;20033;-68
2023/03/11 08:57:59;;;;;;;3.03;1.95;;;;;;;;;;5015480;28;20034;-69
2023/03/11 09:00:25;;;;;;;2.25;1.60;;;;;;;;;;5007583;28;20121;-68
2023/03/11 09:02:50;;;;;;;3.03;1.95;;;;;;;;;;5014321;28;20046;-68
2023/03/11 09:05:16;;;;;;;2.15;1.60;;;;;;;;;;5015920;28;20034;-68
2023/03/11 09:07:41;;;;;;;3.22;1.67;;;;;;;;;;5016222;28;20108;-68
2023/03/11 09:10:07;;;;;;;2.08;1.70;;;;;;;;;;5016153;28;20453;-68
2023/03/11 09:12:32;;;;;;;1.67;1.55;;;;;;;;;;5015944;28;20126;-68
2023/03/11 09:14:58;;;;;;;2.00;1.77;;;;;;;;;;5013063;28;20037;-68
2023/03/11 09:17:23;;;;;;;2.25;1.75;;;;;;;;;;5016233;28;20034;-68
2023/03/11 09:19:48;;;;;;;2.08;1.83;;;;;;;;;;5015671;28;20562;-69
2023/03/11 09:22:14;;;;;;;2.05;1.85;;;;;;;;;;5006940;28;20044;-69
2023/03/11 09:24:39;;;;;;;1.73;1.63;;;;;;;;;;5015949;28;20045;-69
2023/03/11 09:27:05;;;;;;;1.50;1.40;;;;;;;;;;5015933;28;20072;-69
2023/03/11 09:29:30;;;;;;;4.32;1.30;;;;;;;;;;5016042;28;20066;-69
2023/03/11 09:31:55;;;;;;;1.35;1.25;;;;;;;;;;5016037;28;20133;-69
2023/03/11 09:34:22;;;;;;;2.22;1.55;;;;;;;;;;5015383;28;20041;-68
2023/03/11 09:36:47;;;;;;;1.70;1.60;;;;;;;;;;5015648;28;20046;-68
2023/03/11 09:39:13;;;;;;;1.35;1.25;;;;;;;;;;5015368;28;20057;-65
2023/03/11 09:41:38;;;;;;;1.42;1.33;;;;;;;;;;5015144;28;20038;-65
2023/03/11 09:44:03;;;;;;;1.10;1.00;;;;;;;;;;5015236;28;20038;-65
2023/03/11 09:46:58;;;;;;;0.90;0.90;;;;;;;;;;5008575;28;20056;-65
2023/03/11 09:49:29;;;;;;;1.42;1.33;;;;;;;;;;4962151;28;20050;-65
2023/03/11 09:52:14;;;;;;;2.65;1.95;;;;;;;;;;5015570;28;20045;-65
2023/03/11 09:54:41;;;;;;;1.73;1.63;;;;;;;;;;5009790;28;20092;-65
2023/03/11 09:57:11;;;;;;;1.90;1.73;;;;;;;;;;5015525;28;20533;-65
2023/03/11 09:59:37;;;;;;;2.35;1.70;;;;;;;;;;5014814;28;20034;-65
2023/03/11 10:02:03;;;;;;;2.35;1.75;;;;;;;;;;5015238;28;20034;-65
2023/03/11 10:04:37;;;;;;;1.48;1.38;;;;;;;;;;5008331;28;20042;-65
2023/03/11 10:07:08;;;;;;;1.75;1.63;;;;;;;;;;5015027;28;20073;-65
2023/03/11 10:09:39;;;;;;;2.15;1.98;;;;;;;;;;5014994;28;20056;-65
2023/03/11 10:12:14;;;;;;;1.65;1.55;;;;;;;;;;5014794;28;20045;-65
2023/03/11 10:14:39;;;;;;;2.65;1.80;;;;;;;;;;5015120;28;20062;-65
2023/03/11 10:17:14;;;;;;;2.17;2.08;;;;;;;;;;5012371;28;20485;-65
2023/03/11 10:19:49;;;;;;;2.25;2.05;;;;;;;;;;5014580;28;20145;-65
2023/03/11 10:22:22;;;;;;;1.88;1.77;;;;;;;;;;5015169;28;20473;-65
2023/03/11 10:24:50;;;;;;;1.80;1.70;;;;;;;;;;5014709;28;20429;-65
2023/03/11 10:27:21;;;;;;;2.25;1.92;;;;;;;;;;5014868;28;20041;-65
2023/03/11 10:30:08;;;;;;;1.70;1.60;;;;;;;;;;5014497;28;20121;-65
2023/03/11 10:32:43;;;;;;;2.05;1.95;;;;;;;;;;5014584;28;20377;-65
2023/03/11 10:35:16;;;;;;;2.13;1.92;;;;;;;;;;5014851;28;20046;-65
2023/03/11 10:37:43;;;;;;;1.88;1.75;;;;;;;;;;5014752;28;20483;-65
2023/03/11 10:40:18;;;;;;;1.65;1.55;;;;;;;;;;5012081;28;20465;-65
2023/03/11 10:42:45;;;;;;;2.30;1.90;;;;;;;;;;5013844;28;20045;-66
2023/03/11 10:45:12;;;;;;;1.55;1.45;;;;;;;;;;5013650;28;20061;-61
2023/03/11 10:47:37;;;;;;;1.85;1.58;;;;;;;;;;5013736;28;20091;-67
2023/03/11 10:50:03;;;;;;;1.30;1.20;;;;;;;;;;5013628;28;20557;-66
2023/03/11 10:52:30;;;;;;;1.50;1.40;;;;;;;;;;5014075;28;20078;-67
2023/03/11 10:54:59;;;;;;;1.58;1.48;;;;;;;;;;5008992;28;20076;-67
2023/03/11 10:57:27;;;;;;;2.00;1.90;;;;;;;;;;5013715;28;20037;-70
2023/03/11 10:59:53;;;;;;;1.85;1.75;;;;;;;;;;5013475;28;20105;-66
2023/03/11 11:02:19;;;;;;;1.92;1.80;;;;;;;;;;5013440;28;20058;-66
2023/03/11 11:04:44;;;;;;;1.55;1.45;;;;;;;;;;5014058;28;20135;-66
2023/03/11 11:07:31;;;;;;;2.38;1.58;;;;;;;;;;5013995;28;20041;-66
2023/03/11 11:10:16;;;;;;;3.35;1.70;;;;;;;;;;5013663;28;20029;-66
2023/03/11 11:12:56;;;;;;;1.75;1.65;;;;;;;;;;5013337;28;20049;-66
2023/03/11 11:15:21;;;;;;;;;;;;;;;;;;5013850;28;20042;-66
2023/03/11 11:17:47;;;;;;;1.80;1.42;;;;;;;;;;5013388;28;19917;-65
2023/03/11 11:20:15;;;;;;;1.70;1.60;;;;;;;;;;5013090;28;20020;-70
2023/03/11 11:22:47;;;;;;;1.50;1.33;;;;;;;;;;5013261;28;20462;-70
2023/03/11 11:25:31;;;;;;;2.13;1.70;;;;;;;;;;5013637;28;20042;-70
2023/03/11 11:28:14;;;;;;;1.90;1.63;;;;;;;;;;5013406;28;20042;-71
2023/03/11 11:30:52;;;;;;;1.70;1.60;;;;;;;;;;4991283;28;20041;-70
2023/03/11 11:33:22;;;;;;;2.63;2.40;;;;;;;;;;5013195;28;20173;-67
2023/03/11 11:35:52;;;;;;;1.80;1.70;;;;;;;;;;5012870;28;20038;-67
2023/03/11 11:38:19;;;;;;;1.67;1.57;;;;;;;;;;5013084;28;20462;-67
2023/03/11 11:40:45;;;;;;;2.33;1.88;;;;;;;;;;5013466;28;20045;-67
2023/03/11 11:43:15;;;;;;;1.77;1.67;;;;;;;;;;5013171;28;20030;-61
2023/03/11 11:45:43;;;;;;;1.42;1.33;;;;;;;;;;5012647;28;20042;-70
2023/03/11 11:48:18;;;;;;;1.55;1.45;;;;;;;;;;5012493;28;20046;-70
2023/03/11 11:50:45;;;;;;;2.17;1.80;;;;;;;;;;5013341;28;20068;-68
2023/03/11 11:53:34;;;;;;;1.58;1.48;;;;;;;;;;5010152;28;20100;-68
2023/03/11 11:56:00;;;;;;;1.20;1.15;;;;;;;;;;4999931;28;20057;-68
2023/03/11 11:58:25;;;;;;;1.38;1.27;;;;;;;;;;5013506;28;20042;-68
2023/03/11 12:00:56;;;;;;;1.63;1.23;;;;;;;;;;5013412;28;20042;-68
2023/03/11 12:03:43;;;;;;;1.17;1.13;;;;;;;;;;5013626;28;20038;-68
2023/03/11 12:06:15;;;;;;;1.50;1.40;;;;;;;;;;5015647;28;20413;-67
2023/03/11 12:08:50;;;;;;;1.48;1.38;;;;;;;;;;5017150;28;20062;-68
2023/03/11 12:11:20;;;;;;;2.13;1.77;;;;;;;;;;5017042;28;20097;-67
2023/03/11 12:14:09;;;;;;;1.50;1.40;;;;;;;;;;5017329;28;20461;-68
2023/03/11 12:16:54;;;;;;;2.72;1.65;;;;;;;;;;5010679;28;20541;-67
2023/03/11 12:19:28;;;;;;;1.65;1.55;;;;;;;;;;5016614;28;20038;-67
2023/03/11 12:22:12;;;;;;;1.98;1.88;;;;;;;;;;5016233;28;20473;-67
2023/03/11 12:24:56;;;;;;;3.40;2.05;;;;;;;;;;5015979;28;20218;-67
2023/03/11 12:27:45;;;;;;;1.25;1.15;;;;;;;;;;5014273;28;20373;-68
2023/03/11 12:30:15;;;;;;;2.00;1.85;;;;;;;;;;5005579;28;20405;-68
2023/03/11 12:32:50;;;;;;;1.80;1.70;;;;;;;;;;5013091;28;20108;-67
2023/03/11 12:35:45;;;;;;;1.67;1.58;;;;;;;;;;5012488;28;20045;-67
2023/03/11 12:38:13;;;;;;;1.38;1.15;;;;;;;;;;4998957;28;20061;-67
2023/03/11 12:40:44;;;;;;;1.90;1.75;;;;;;;;;;5012716;28;20088;-67
2023/03/11 12:43:22;;;;;;;1.60;1.50;;;;;;;;;;5012610;28;20045;-67
2023/03/11 12:45:51;;;;;;;1.55;1.45;;;;;;;;;;5012974;28;20461;-67
2023/03/11 12:48:28;;;;;;;1.02;1.02;;;;;;;;;;5012565;28;20048;-67
2023/03/11 12:50:57;;;;;;;1.35;1.25;;;;;;;;;;5012993;28;20125;-67
2023/03/11 12:53:41;;;;;;;1.27;1.15;;;;;;;;;;5012825;28;20545;-66
2023/03/11 12:56:18;;;;;;;1.50;1.40;;;;;;;;;;5012365;28;20136;-68
2023/03/11 12:58:51;;;;;;;1.55;1.45;;;;;;;;;;5012177;28;20038;-67
2023/03/11 13:01:38;;;;;;;1.83;1.70;;;;;;;;;;5012153;28;20085;-68
2023/03/11 13:04:09;;;;;;;1.92;1.77;;;;;;;;;;5012796;28;20049;-67
2023/03/11 13:06:50;;;;;;;2.03;1.92;;;;;;;;;;4989611;28;20080;-67
2023/03/11 13:09:16;;;;;;;2.65;2.42;;;;;;;;;;5012487;28;20489;-67
2023/03/11 13:11:43;;;;;;;2.55;2.15;;;;;;;;;;5012479;28;20042;-67
2023/03/11 13:14:10;;;;;;;2.92;2.00;;;;;;;;;;5012263;28;20423;-68
2023/03/11 13:16:36;;;;;;;2.97;2.03;;;;;;;;;;5011693;28;20030;-66
2023/03/11 13:19:22;;;;;;;1.90;1.80;;;;;;;;;;5011581;28;20390;-66
2023/03/11 13:21:48;;;;;;;1.95;1.85;;;;;;;;;;5006842;28;20043;-66
2023/03/11 13:24:24;;;;;;;2.50;1.67;;;;;;;;;;5012531;28;20370;-65
2023/03/11 13:26:58;;;;;;;1.60;1.50;;;;;;;;;;5012170;28;20588;-66
2023/03/11 13:29:27;;;;;;;2.35;2.15;;;;;;;;;;5012042;28;20045;-66
2023/03/11 13:32:12;;;;;;;1.98;1.85;;;;;;;;;;5012110;28;20045;-66
2023/03/11 13:34:56;;;;;;;2.13;2.03;;;;;;;;;;5011611;28;20077;-66
2023/03/11 13:37:40;;;;;;;2.17;1.98;;;;;;;;;;5011859;28;20038;-66
2023/03/11 13:40:24;;;;;;;1.85;1.55;;;;;;;;;;5012163;28;20045;-66
2023/03/11 13:42:50;;;;;;;2.40;2.20;;;;;;;;;;5011438;28;20037;-66
2023/03/11 13:45:30;;;;;;;3.33;2.25;;;;;;;;;;5011410;28;20595;-67
2023/03/11 13:47:58;;;;;;;2.25;2.10;;;;;;;;;;5011230;28;20046;-67
2023/03/11 13:50:33;;;;;;;1.90;1.80;;;;;;;;;;5003587;28;20041;-66
2023/03/11 13:53:00;;;;;;;2.00;1.80;;;;;;;;;;5011597;28;20188;-66
2023/03/11 13:55:28;;;;;;;2.00;1.90;;;;;;;;;;5011683;28;20544;-66
2023/03/11 13:57:54;;;;;;;2.00;1.90;;;;;;;;;;5011276;28;20432;-66
2023/03/11 14:00:24;;;;;;;2.10;1.88;;;;;;;;;;5009301;28;20128;-66
2023/03/11 14:02:53;;;;;;;2.08;1.90;;;;;;;;;;5011445;28;20045;-67
2023/03/11 14:05:35;;;;;;;4.10;3.30;;;;;;;;;;5011103;28;20049;-65
2023/03/11 14:08:30;;;;;;;1.80;1.70;;;;;;;;;;5011156;28;20088;-65
2023/03/11 14:10:57;;;;;;;2.50;2.30;;;;;;;;;;4988708;28;20083;-64
2023/03/11 14:13:24;;;;;;;1.88;1.58;;;;;;;;;;5010975;28;20048;-65
2023/03/11 14:15:52;;;;;;;2.60;2.40;;;;;;;;;;5011375;28;20069;-65
2023/03/11 14:18:31;;;;;;;2.10;1.90;;;;;;;;;;5011080;28;20041;-65
2023/03/11 14:20:56;;;;;;;2.55;2.35;;;;;;;;;;5011125;28;20034;-65
2023/03/11 14:23:23;;;;;;;2.60;2.40;;;;;;;;;;5003311;28;20026;-65
2023/03/11 14:25:56;;;;;;;3.45;3.03;;;;;;;;;;5009477;28;20497;-65
2023/03/11 14:28:23;;;;;;;4.78;3.90;;;;;;;;;;5010679;28;20417;-62
2023/03/11 14:30:56;;;;;;;6.13;4.43;;;;;;;;;;5011957;28;20085;-61
2023/03/11 14:33:21;;;;;;;2.50;2.30;;;;;;;;;;5011882;28;20038;-62
2023/03/11 14:36:01;;;;;;;7.45;5.40;;;;;;;;;;5011372;28;20056;-62
2023/03/11 14:38:28;;;;;;;2.80;2.60;;;;;;;;;;5011418;28;20141;-62
2023/03/11 14:41:02;;;;;;;3.80;3.50;;;;;;;;;;5011246;28;20034;-61
2023/03/11 14:43:29;;;;;;;4.25;3.95;;;;;;;;;;5009071;28;20665;-62
2023/03/11 14:45:55;;;;;;;2.60;2.40;;;;;;;;;;5009536;28;20046;-62
2023/03/11 14:48:23;;;;;;;3.60;3.15;;;;;;;;;;5010075;28;20046;-61
2023/03/11 14:50:49;;;;;;;3.95;3.15;;;;;;;;;;5010769;28;20108;-61
2023/03/11 14:53:14;;;;;;;3.10;2.80;;;;;;;;;;5010732;28;20041;-61